createdAt,value
2022-08-20T00:00:55.149Z,21.20
2022-08-20T00:03:34.839Z,21.21
2022-08-20T00:06:10.201Z,21.18
2022-08-20T00:08:40.188Z,21.17
2022-08-20T00:11:14.054Z,21.18
2022-08-20T00:13:46.586Z,21.18
2022-08-20T00:16:18.333Z,21.17
2022-08-20T00:18:48.930Z,21.16
2022-08-20T00:21:25.062Z,21.14
2022-08-20T00:23:57.352Z,21.13
2022-08-20T00:26:27.981Z,21.15
2022-08-20T00:28:58.181Z,21.17
2022-08-20T00:31:28.564Z,21.16
2022-08-20T00:33:58.329Z,21.17
2022-08-20T00:36:32.720Z,21.18
2022-08-20T00:39:03.321Z,21.18
2022-08-20T00:41:33.850Z,21.19
2022-08-20T00:44:13.282Z,21.18
2022-08-20T00:46:44.507Z,21.15
2022-08-20T00:49:19.600Z,21.15
2022-08-20T00:51:55.815Z,21.13
2022-08-20T00:54:29.080Z,21.12
2022-08-20T00:57:03.607Z,21.11
2022-08-20T00:59:37.385Z,21.08
2022-08-20T01:02:10.483Z,21.07
2022-08-20T01:04:40.755Z,21.05
2022-08-20T01:07:13.762Z,21.03
2022-08-20T01:09:58.094Z,21.02
2022-08-20T01:12:30.560Z,20.98
2022-08-20T01:15:02.742Z,20.94
2022-08-20T01:17:37.277Z,20.93
2022-08-20T01:20:13.509Z,20.91
2022-08-20T01:23:11.262Z,20.87
2022-08-20T01:25:50.405Z,20.85
2022-08-20T01:28:25.740Z,20.80
2022-08-20T01:30:56.203Z,20.75
2022-08-20T01:33:27.189Z,20.71
2022-08-20T01:35:57.976Z,20.67
2022-08-20T01:38:27.839Z,20.64
2022-08-20T01:41:28.518Z,20.60
2022-08-20T01:44:00.114Z,20.55
2022-08-20T01:46:34.969Z,20.50
2022-08-20T01:49:15.663Z,20.44
2022-08-20T01:51:53.918Z,20.40
2022-08-20T01:54:24.878Z,20.36
2022-08-20T01:57:01.635Z,20.30
2022-08-20T01:59:32.116Z,20.26
2022-08-20T02:02:02.935Z,20.22
2022-08-20T02:04:32.834Z,20.17
2022-08-20T02:07:04.917Z,20.14
2022-08-20T02:09:38.044Z,20.11
2022-08-20T02:12:14.443Z,20.08
2022-08-20T02:14:46.151Z,20.03
2022-08-20T02:17:18.328Z,20.02
2022-08-20T02:19:51.796Z,19.99
2022-08-20T02:22:26.398Z,19.95
2022-08-20T02:24:57.488Z,19.93
2022-08-20T02:27:29.815Z,19.91
2022-08-20T02:29:59.590Z,19.85
2022-08-20T02:32:33.119Z,19.81
2022-08-20T02:35:04.617Z,19.78
2022-08-20T02:37:34.865Z,19.74
2022-08-20T02:40:05.459Z,19.74
2022-08-20T02:42:42.019Z,19.70
2022-08-20T02:45:18.873Z,19.66
2022-08-20T02:47:49.712Z,19.62
2022-08-20T02:50:22.441Z,19.59
2022-08-20T02:52:52.434Z,19.54
2022-08-20T02:55:27.046Z,19.52
2022-08-20T02:58:02.356Z,19.50
2022-08-20T03:00:38.276Z,19.45
2022-08-20T03:03:09.008Z,19.44
2022-08-20T03:05:41.434Z,19.43
2022-08-20T03:08:12.996Z,19.41
2022-08-20T03:10:45.112Z,19.38
2022-08-20T03:13:18.818Z,19.34
2022-08-20T03:15:55.261Z,19.34
2022-08-20T03:18:30.511Z,19.34
2022-08-20T03:21:00.273Z,19.31
2022-08-20T03:23:30.078Z,19.29
2022-08-20T03:25:59.887Z,19.30
2022-08-20T03:28:32.275Z,19.29
2022-08-20T03:31:02.937Z,19.27
2022-08-20T03:33:32.794Z,19.27
2022-08-20T03:36:02.535Z,19.28
2022-08-20T03:38:33.520Z,19.28
2022-08-20T03:41:03.662Z,19.26
2022-08-20T03:43:37.542Z,19.23
2022-08-20T03:46:22.051Z,19.20
2022-08-20T03:48:56.663Z,19.19
2022-08-20T03:51:31.214Z,19.19
2022-08-20T03:54:01.541Z,19.17
2022-08-20T03:56:31.871Z,19.17
2022-08-20T03:59:04.251Z,19.15
2022-08-20T04:01:44.614Z,19.12
2022-08-20T04:04:16.752Z,19.12
2022-08-20T04:06:47.206Z,19.12
2022-08-20T04:09:17.248Z,19.11
2022-08-20T04:11:47.115Z,19.10
2022-08-20T04:14:20.600Z,19.11
2022-08-20T04:16:50.592Z,19.10
2022-08-20T04:19:20.971Z,19.09
2022-08-20T04:21:50.689Z,19.10
2022-08-20T04:24:22.640Z,19.09
2022-08-20T04:27:02.935Z,19.06
2022-08-20T04:29:36.680Z,19.06
2022-08-20T04:32:08.390Z,19.05
2022-08-20T04:34:39.352Z,19.02
2022-08-20T04:37:16.989Z,19.02
2022-08-20T04:40:07.424Z,19.00
2022-08-20T04:42:41.756Z,18.97
2022-08-20T04:45:16.165Z,18.97
2022-08-20T04:47:46.407Z,18.97
2022-08-20T04:50:16.488Z,19.00
2022-08-20T04:52:47.781Z,19.07
2022-08-20T04:55:17.665Z,19.19
2022-08-20T04:57:48.040Z,19.38
2022-08-20T05:00:20.745Z,19.54
2022-08-20T05:02:50.481Z,19.61
2022-08-20T05:05:21.724Z,19.62
2022-08-20T05:07:51.503Z,19.63
2022-08-20T05:10:23.705Z,19.64
2022-08-20T05:12:56.635Z,19.66
2022-08-20T05:15:29.664Z,19.66
2022-08-20T05:18:04.852Z,19.67
2022-08-20T05:20:38.917Z,19.64
2022-08-20T05:23:10.565Z,19.63
2022-08-20T05:25:41.256Z,19.62
2022-08-20T05:28:13.017Z,19.60
2022-08-20T05:30:47.651Z,19.56
2022-08-20T05:33:20.095Z,19.51
2022-08-20T05:35:52.695Z,19.49
2022-08-20T05:38:24.699Z,19.46
2022-08-20T05:40:55.096Z,19.44
2022-08-20T05:43:25.051Z,19.44
2022-08-20T05:45:57.617Z,19.44
2022-08-20T05:48:28.161Z,19.43
2022-08-20T05:50:58.744Z,19.41
2022-08-20T05:53:28.830Z,19.40
2022-08-20T05:55:59.706Z,19.42
2022-08-20T05:58:31.225Z,19.56
2022-08-20T06:01:03.801Z,19.77
2022-08-20T06:03:46.015Z,19.99
2022-08-20T06:06:45.046Z,20.24
2022-08-20T06:09:06.157Z,20.49
2022-08-20T06:11:37.354Z,20.75
2022-08-20T06:14:07.441Z,21.01
2022-08-20T06:16:39.895Z,21.26
2022-08-20T06:19:27.307Z,21.47
2022-08-20T06:22:02.578Z,21.63
2022-08-20T06:24:47.933Z,21.79
2022-08-20T06:27:19.153Z,21.95
2022-08-20T06:29:49.345Z,22.10
2022-08-20T06:32:32.045Z,22.27
2022-08-20T06:35:04.299Z,22.41
2022-08-20T06:37:36.620Z,22.59
2022-08-20T06:40:10.330Z,22.74
2022-08-20T06:42:48.093Z,22.84
2022-08-20T06:45:21.719Z,22.94
2022-08-20T06:47:55.930Z,23.06
2022-08-20T06:50:30.611Z,23.14
2022-08-20T06:53:00.518Z,23.23
2022-08-20T06:55:30.721Z,23.30
2022-08-20T06:58:01.647Z,23.40
2022-08-20T07:00:33.433Z,23.53
2022-08-20T07:03:06.473Z,23.65
2022-08-20T07:05:42.300Z,23.78
2022-08-20T07:08:13.680Z,23.90
2022-08-20T07:10:44.764Z,24.01
2022-08-20T07:13:16.466Z,24.11
2022-08-20T07:15:47.841Z,24.25
2022-08-20T07:18:29.108Z,24.38
2022-08-20T07:20:59.941Z,24.52
2022-08-20T07:23:31.580Z,24.64
2022-08-20T07:26:01.653Z,24.74
2022-08-20T07:28:32.156Z,24.74
2022-08-20T07:31:14.861Z,24.77
2022-08-20T07:33:50.318Z,24.80
2022-08-20T07:36:21.156Z,24.75
2022-08-20T07:38:52.532Z,24.72
2022-08-20T07:41:23.059Z,24.81
2022-08-20T07:43:52.770Z,24.95
2022-08-20T07:46:25.012Z,25.08
2022-08-20T07:49:05.510Z,25.17
2022-08-20T07:51:35.960Z,25.17
2022-08-20T07:54:06.180Z,25.17
2022-08-20T07:56:35.890Z,25.21
2022-08-20T07:59:06.495Z,25.27
2022-08-20T08:01:36.237Z,25.28
2022-08-20T08:04:08.781Z,25.31
2022-08-20T08:06:38.535Z,25.35
2022-08-20T08:09:10.436Z,25.43
2022-08-20T08:11:47.457Z,25.49
2022-08-20T08:14:21.449Z,25.59
2022-08-20T08:16:51.185Z,25.60
2022-08-20T08:19:24.406Z,25.56
2022-08-20T08:21:54.313Z,25.55
2022-08-20T08:24:28.223Z,25.53
2022-08-20T08:26:58.385Z,25.52
2022-08-20T08:29:28.880Z,25.58
2022-08-20T08:31:59.049Z,25.64
2022-08-20T08:34:31.767Z,25.67
2022-08-20T08:37:05.548Z,25.72
2022-08-20T08:39:36.731Z,25.74
2022-08-20T08:42:26.128Z,25.79
2022-08-20T08:44:58.118Z,25.86
2022-08-20T08:47:31.709Z,25.90
2022-08-20T08:50:05.785Z,25.87
2022-08-20T08:52:42.255Z,25.76
2022-08-20T08:55:17.424Z,25.66
2022-08-20T08:57:47.175Z,25.56
2022-08-20T09:00:21.457Z,25.51
2022-08-20T09:03:00.490Z,25.44
2022-08-20T09:05:39.532Z,25.38
2022-08-20T09:08:17.212Z,25.30
2022-08-20T09:10:47.252Z,25.28
2022-08-20T09:13:17.014Z,25.33
2022-08-20T09:15:46.777Z,25.40
2022-08-20T09:18:16.511Z,25.42
2022-08-20T09:20:48.858Z,25.47
2022-08-20T09:23:18.589Z,25.54
2022-08-20T09:25:48.321Z,25.58
2022-08-20T09:28:18.403Z,25.63
2022-08-20T09:30:48.194Z,25.66
2022-08-20T09:33:18.945Z,25.68
2022-08-20T09:35:51.391Z,25.69
2022-08-20T09:38:21.357Z,25.62
2022-08-20T09:40:51.113Z,25.49
2022-08-20T09:43:20.867Z,25.39
2022-08-20T09:45:50.757Z,25.29
2022-08-20T09:48:20.485Z,25.16
2022-08-20T09:51:01.980Z,25.04
2022-08-20T09:53:33.193Z,24.98
2022-08-20T09:56:03.011Z,24.92
2022-08-20T09:58:38.364Z,24.84
2022-08-20T10:01:14.334Z,24.78
2022-08-20T10:03:44.347Z,24.76
2022-08-20T10:06:17.978Z,24.79
2022-08-20T10:08:47.773Z,24.81
2022-08-20T10:11:17.843Z,24.89
2022-08-20T10:13:47.785Z,24.96
2022-08-20T10:16:17.504Z,25.05
2022-08-20T10:18:49.333Z,25.06
2022-08-20T10:21:22.009Z,25.06
2022-08-20T10:23:51.801Z,25.03
2022-08-20T10:26:21.515Z,24.99
2022-08-20T10:28:51.231Z,24.96
2022-08-20T10:31:20.981Z,24.96
2022-08-20T10:33:50.706Z,24.96
2022-08-20T10:36:23.100Z,24.97
2022-08-20T10:38:52.843Z,24.98
2022-08-20T10:41:22.732Z,24.97
2022-08-20T10:43:52.666Z,24.94
2022-08-20T10:46:22.485Z,24.90
2022-08-20T10:48:52.376Z,24.83
2022-08-20T10:51:32.432Z,24.81
2022-08-20T10:54:02.728Z,24.80
2022-08-20T10:56:38.031Z,24.79
2022-08-20T10:59:07.775Z,24.83
2022-08-20T11:01:37.566Z,24.87
2022-08-20T11:04:07.677Z,24.86
2022-08-20T11:06:40.038Z,24.84
2022-08-20T11:09:09.892Z,24.83
2022-08-20T11:11:39.701Z,24.89
2022-08-20T11:14:09.415Z,24.94
2022-08-20T11:16:39.136Z,24.96
2022-08-20T11:19:08.895Z,24.94
2022-08-20T11:21:41.218Z,24.90
2022-08-20T11:24:11.034Z,24.90
2022-08-20T11:26:40.836Z,24.94
2022-08-20T11:29:10.614Z,24.97
2022-08-20T11:31:40.326Z,24.97
2022-08-20T11:34:12.718Z,24.92
2022-08-20T11:36:45.925Z,24.88
2022-08-20T11:39:15.770Z,24.87
2022-08-20T11:41:46.885Z,24.87
2022-08-20T11:44:20.790Z,24.89
2022-08-20T11:46:51.277Z,24.94
2022-08-20T11:49:21.029Z,25.03
2022-08-20T11:51:53.376Z,25.11
2022-08-20T11:54:23.128Z,25.18
2022-08-20T11:56:52.851Z,25.26
2022-08-20T11:59:22.569Z,25.34
2022-08-20T12:02:03.202Z,25.34
2022-08-20T12:04:35.177Z,25.32
2022-08-20T12:07:15.181Z,25.28
2022-08-20T12:09:51.107Z,25.29
2022-08-20T12:12:23.564Z,25.25
2022-08-20T12:14:53.667Z,25.25
2022-08-20T12:17:28.766Z,25.33
2022-08-20T12:20:01.557Z,25.40
2022-08-20T12:22:33.912Z,25.44
2022-08-20T12:25:03.696Z,25.47
2022-08-20T12:27:35.378Z,25.53
2022-08-20T12:30:09.293Z,25.53
2022-08-20T12:32:39.234Z,25.48
2022-08-20T12:35:11.326Z,25.42
2022-08-20T12:37:44.555Z,25.41
2022-08-20T12:40:17.401Z,25.42
2022-08-20T12:42:56.688Z,25.41
2022-08-20T12:45:27.840Z,25.40
2022-08-20T12:48:04.003Z,25.40
2022-08-20T12:50:34.440Z,25.41
2022-08-20T12:53:07.917Z,25.40
2022-08-20T12:55:37.941Z,25.40
2022-08-20T12:58:10.873Z,25.40
2022-08-20T13:00:47.261Z,25.41
2022-08-20T13:03:20.276Z,25.44
2022-08-20T13:05:50.811Z,25.44
2022-08-20T13:08:23.168Z,25.43
2022-08-20T13:10:52.917Z,25.39
2022-08-20T13:13:22.622Z,25.36
2022-08-20T13:15:53.073Z,25.31
2022-08-20T13:18:23.134Z,25.30
2022-08-20T13:20:52.953Z,25.28
2022-08-20T13:23:25.282Z,25.30
2022-08-20T13:25:55.521Z,25.32
2022-08-20T13:28:25.219Z,25.31
2022-08-20T13:30:55.001Z,25.28
2022-08-20T13:33:25.354Z,25.26
2022-08-20T13:35:55.428Z,25.23
2022-08-20T13:38:28.289Z,25.18
2022-08-20T13:40:58.221Z,25.20
2022-08-20T13:43:27.950Z,25.23
2022-08-20T13:45:57.665Z,25.23
2022-08-20T13:48:27.400Z,25.22
2022-08-20T13:50:57.140Z,25.19
2022-08-20T13:53:29.802Z,25.16
2022-08-20T13:56:00.001Z,25.13
2022-08-20T13:58:29.936Z,25.14
2022-08-20T14:00:59.744Z,25.18
2022-08-20T14:03:29.502Z,25.23
2022-08-20T14:05:59.253Z,25.24
2022-08-20T14:08:31.972Z,25.21
2022-08-20T14:11:01.890Z,25.16
2022-08-20T14:13:31.861Z,25.15
2022-08-20T14:16:01.579Z,25.13
2022-08-20T14:18:31.314Z,25.14
2022-08-20T14:21:01.042Z,25.16
2022-08-20T14:23:36.837Z,25.17
2022-08-20T14:26:06.792Z,25.21
2022-08-20T14:28:36.569Z,25.22
2022-08-20T14:31:06.295Z,25.23
2022-08-20T14:33:36.273Z,25.25
2022-08-20T14:36:07.470Z,25.25
2022-08-20T14:38:45.137Z,25.21
2022-08-20T14:41:14.873Z,25.15
2022-08-20T14:43:44.634Z,25.12
2022-08-20T14:46:14.340Z,25.09
2022-08-20T14:48:44.121Z,25.03
2022-08-20T14:51:13.870Z,24.98
2022-08-20T14:53:46.916Z,24.95
2022-08-20T14:56:18.112Z,24.89
2022-08-20T14:58:47.857Z,24.84
2022-08-20T15:01:17.697Z,24.76
2022-08-20T15:03:47.448Z,24.72
2022-08-20T15:06:22.076Z,24.64
2022-08-20T15:08:54.773Z,24.61
2022-08-20T15:11:24.480Z,24.58
2022-08-20T15:13:54.469Z,24.60
2022-08-20T15:16:24.195Z,24.60
2022-08-20T15:18:59.819Z,24.58
2022-08-20T15:21:30.088Z,24.55
2022-08-20T15:24:19.251Z,24.53
2022-08-20T15:26:49.533Z,24.48
2022-08-20T15:29:23.271Z,24.43
2022-08-20T15:31:53.500Z,24.39
2022-08-20T15:34:23.248Z,24.40
2022-08-20T15:36:52.971Z,24.39
2022-08-20T15:39:25.316Z,24.41
2022-08-20T15:41:54.997Z,24.43
2022-08-20T15:44:24.724Z,24.42
2022-08-20T15:46:54.684Z,24.42
2022-08-20T15:49:26.289Z,24.42
2022-08-20T15:51:56.028Z,24.40
2022-08-20T15:54:30.812Z,24.39
2022-08-20T15:57:09.003Z,24.39
2022-08-20T15:59:56.633Z,24.38
2022-08-20T16:02:47.156Z,24.33
2022-08-20T16:05:25.633Z,24.30
2022-08-20T16:08:07.159Z,24.26
2022-08-20T16:10:50.467Z,24.20
2022-08-20T16:13:32.080Z,24.17
2022-08-20T16:16:05.151Z,24.16
2022-08-20T16:18:39.148Z,24.19
2022-08-20T16:21:12.521Z,24.19
2022-08-20T16:23:45.435Z,24.19
2022-08-20T16:26:29.519Z,24.18
2022-08-20T16:29:11.874Z,24.13
2022-08-20T16:31:49.130Z,24.13
2022-08-20T16:34:33.593Z,24.16
2022-08-20T16:37:13.112Z,24.13
2022-08-20T16:39:53.126Z,24.11
2022-08-20T16:42:28.752Z,24.10
2022-08-20T16:44:59.624Z,24.07
2022-08-20T16:47:32.204Z,24.02
2022-08-20T16:50:07.623Z,24.02
2022-08-20T16:52:37.377Z,24.01
2022-08-20T16:55:07.605Z,24.01
2022-08-20T16:57:39.988Z,24.00
2022-08-20T17:00:15.443Z,23.98
2022-08-20T17:02:56.888Z,23.94
2022-08-20T17:05:29.555Z,23.86
2022-08-20T17:08:04.675Z,23.81
2022-08-20T17:10:37.613Z,23.75
2022-08-20T17:13:28.206Z,23.71
2022-08-20T17:16:01.368Z,23.67
2022-08-20T17:18:34.042Z,23.65
2022-08-20T17:21:06.299Z,23.63
2022-08-20T17:23:54.988Z,23.60
2022-08-20T17:26:35.271Z,23.59
2022-08-20T17:29:18.047Z,23.59
2022-08-20T17:31:50.490Z,23.54
2022-08-20T17:34:22.762Z,23.51
2022-08-20T17:36:59.732Z,23.46
2022-08-20T17:39:32.250Z,23.44
2022-08-20T17:42:09.789Z,23.45
2022-08-20T17:44:48.482Z,23.42
2022-08-20T17:47:19.955Z,23.37
2022-08-20T17:50:02.419Z,23.32
2022-08-20T17:52:42.405Z,23.27
2022-08-20T17:55:15.040Z,23.23
2022-08-20T17:57:48.519Z,23.21
2022-08-20T18:00:25.773Z,23.17
2022-08-20T18:03:00.285Z,23.13
2022-08-20T18:05:34.308Z,23.14
2022-08-20T18:08:22.132Z,23.15
2022-08-20T18:11:03.643Z,23.14
2022-08-20T18:13:58.444Z,23.17
2022-08-20T18:16:36.655Z,23.12
2022-08-20T18:19:18.061Z,23.10
2022-08-20T18:22:12.787Z,23.08
2022-08-20T18:24:48.011Z,23.04
2022-08-20T18:27:21.763Z,22.99
2022-08-20T18:29:58.210Z,22.94
2022-08-20T18:32:34.197Z,22.90
2022-08-20T18:35:20.276Z,22.86
2022-08-20T18:37:50.056Z,22.81
2022-08-20T18:40:29.879Z,22.80
2022-08-20T18:43:13.647Z,22.77
2022-08-20T18:45:43.685Z,22.75
2022-08-20T18:48:25.530Z,22.72
2022-08-20T18:50:59.409Z,22.69
2022-08-20T18:53:34.096Z,22.66
2022-08-20T18:56:07.077Z,22.62
2022-08-20T18:58:40.995Z,22.57
2022-08-20T19:01:15.076Z,22.52
2022-08-20T19:03:50.031Z,22.45
2022-08-20T19:06:36.303Z,22.42
2022-08-20T19:09:14.225Z,22.35
2022-08-20T19:12:00.737Z,22.30
2022-08-20T19:14:55.373Z,22.24
2022-08-20T19:17:35.952Z,22.17
2022-08-20T19:20:11.797Z,22.14
2022-08-20T19:22:43.997Z,22.09
2022-08-20T19:25:24.901Z,22.05
2022-08-20T19:27:55.368Z,22.02
2022-08-20T19:30:34.656Z,21.98
2022-08-20T19:33:05.322Z,21.94
2022-08-20T19:35:38.432Z,21.90
2022-08-20T19:38:10.473Z,21.86
2022-08-20T19:40:43.590Z,21.82
2022-08-20T19:43:21.897Z,21.78
2022-08-20T19:45:54.522Z,21.75
2022-08-20T19:48:37.733Z,21.72
2022-08-20T19:51:16.879Z,21.67
2022-08-20T19:53:50.181Z,21.63
2022-08-20T19:56:21.934Z,21.57
2022-08-20T19:59:02.183Z,21.53
2022-08-20T20:01:32.547Z,21.47
2022-08-20T20:04:04.498Z,21.42
2022-08-20T20:06:40.120Z,21.36
2022-08-20T20:09:19.661Z,21.33
2022-08-20T20:11:52.475Z,21.26
2022-08-20T20:14:24.892Z,21.21
2022-08-20T20:16:55.704Z,21.16
2022-08-20T20:19:27.230Z,21.11
2022-08-20T20:22:20.171Z,21.05
2022-08-20T20:24:52.803Z,20.98
2022-08-20T20:27:27.216Z,20.94
2022-08-20T20:30:03.785Z,20.89
2022-08-20T20:32:33.980Z,20.83
2022-08-20T20:35:07.205Z,20.78
2022-08-20T20:37:50.797Z,20.71
2022-08-20T20:40:27.808Z,20.66
2022-08-20T20:43:03.936Z,20.60
2022-08-20T20:45:38.091Z,20.55
2022-08-20T20:48:22.518Z,20.50
2022-08-20T20:50:56.409Z,20.45
2022-08-20T20:53:52.952Z,20.40
2022-08-20T20:56:33.157Z,20.35
2022-08-20T20:59:06.648Z,20.30
2022-08-20T21:01:48.115Z,20.25
2022-08-20T21:04:19.472Z,20.19
2022-08-20T21:06:49.397Z,20.16
2022-08-20T21:09:22.957Z,20.13
2022-08-20T21:11:53.097Z,20.09
2022-08-20T21:14:22.888Z,20.05
2022-08-20T21:16:52.647Z,20.01
2022-08-20T21:19:22.907Z,19.98
2022-08-20T21:21:52.646Z,19.93
2022-08-20T21:24:25.510Z,19.89
2022-08-20T21:26:55.902Z,19.85
2022-08-20T21:29:32.283Z,19.80
2022-08-20T21:32:02.986Z,19.76
2022-08-20T21:34:32.993Z,19.72
2022-08-20T21:37:02.716Z,19.70
2022-08-20T21:39:35.123Z,19.66
2022-08-20T21:42:16.110Z,19.60
2022-08-20T21:44:57.488Z,19.56
2022-08-20T21:47:27.283Z,19.52
2022-08-20T21:49:57.473Z,19.49
2022-08-20T21:52:27.425Z,19.45
2022-08-20T21:54:59.783Z,19.41
2022-08-20T21:57:33.322Z,19.38
2022-08-20T22:00:04.790Z,19.34
2022-08-20T22:02:34.620Z,19.31
2022-08-20T22:05:05.384Z,19.30
2022-08-20T22:07:35.186Z,19.26
2022-08-20T22:10:08.596Z,19.23
2022-08-20T22:12:38.472Z,19.20
2022-08-20T22:15:09.657Z,19.18
2022-08-20T22:17:39.468Z,19.16
2022-08-20T22:20:10.400Z,19.14
2022-08-20T22:22:40.144Z,19.10
2022-08-20T22:25:18.253Z,19.08
2022-08-20T22:27:47.973Z,19.06
2022-08-20T22:30:17.803Z,19.05
2022-08-20T22:32:51.856Z,19.02
2022-08-20T22:35:22.860Z,18.98
2022-08-20T22:37:52.599Z,18.96
2022-08-20T22:40:25.093Z,18.92
2022-08-20T22:42:54.891Z,18.90
2022-08-20T22:45:24.629Z,18.87
2022-08-20T22:47:54.520Z,18.85
2022-08-20T22:50:26.815Z,18.82
2022-08-20T22:52:57.119Z,18.80
2022-08-20T22:55:29.572Z,18.76
2022-08-20T22:57:59.299Z,18.73
2022-08-20T23:00:30.861Z,18.71
2022-08-20T23:03:02.627Z,18.69
2022-08-20T23:05:35.414Z,18.66
2022-08-20T23:08:06.565Z,18.64
2022-08-20T23:10:40.924Z,18.62
2022-08-20T23:13:10.815Z,18.58
2022-08-20T23:15:45.620Z,18.56
2022-08-20T23:18:19.371Z,18.55
2022-08-20T23:20:53.714Z,18.52
2022-08-20T23:23:23.482Z,18.50
2022-08-20T23:25:57.432Z,18.48
2022-08-20T23:28:28.531Z,18.45
2022-08-20T23:30:58.280Z,18.42
2022-08-20T23:33:28.009Z,18.40
2022-08-20T23:35:58.187Z,18.38
2022-08-20T23:38:27.975Z,18.35
2022-08-20T23:41:00.326Z,18.33
2022-08-20T23:43:30.778Z,18.30
2022-08-20T23:46:04.395Z,18.27
2022-08-20T23:48:34.219Z,18.23
2022-08-20T23:51:04.004Z,18.21
2022-08-20T23:53:34.133Z,18.19
2022-08-20T23:56:07.335Z,18.17
2022-08-20T23:58:37.229Z,18.13
